Violeta B — 5BEH4 — position and weather

sailwx.info

Track history (hours):
 
Tides and Currents Weather Stations Pressure Air Temp Water Temp Dewpoint Dewpoint Depression Visibility Wind Speed Wind Dir Waves Ship Positions

Violeta B

Last reported at 2017-Dec-11 17:01 UTC. Time now 2017-Dec-13 09:19 UTC.
Position N 35°57' W 005°36'.

Length 170 m; draft 9.7 m.

Type: Cargo ship. MMSI: 212417000.

Date/timePositionNaut miles runAvg speedWind from/ knotsBaromVisibWave heightAir tempDewpointWater temp
2017-Dec-11 17:01N 35°57' W 005°36'22915.9
2017-Dec-11 02:34N 37°10' W 001°05'115.8
2017-Dec-11 02:29N 37°10' W 001°04'815.7
2017-Dec-11 01:59N 37°16' W 000°57'816.3
2017-Dec-11 01:30N 37°21' W 000°50'816.5
2017-Dec-11 01:00N 37°27' W 000°43'1016.5
2017-Dec-11 00:24N 37°34' W 000°34'616.6
2017-Dec-11 00:00N 37°40' W 000°32'916.4
2017-Dec-10 23:27N 37°49' W 000°29'716.5
2017-Dec-10 23:00N 37°56' W 000°27'816.5
2017-Dec-10 22:30N 38°04' W 000°24'190 3.7
2017-Dec-08 18:36N 40°49' E 001°39'217.2
2017-Dec-08 18:29N 40°51' E 001°41'1117.2
2017-Dec-08 17:51N 40°59' E 001°51'1117.3
2017-Dec-08 17:13N 41°07' E 002°00'417.3
2017-Dec-08 16:58N 41°10' E 002°04'9 0.4
2017-Dec-07 20:07N 41°18' E 002°11'1 8.9
2017-Dec-07 20:01N 41°18' E 002°11'5 2.1
2017-Dec-07 17:32N 41°13' E 002°13'0 1.4
2017-Dec-07 17:28N 41°13' E 002°13'1 1.4
2017-Dec-07 16:42N 41°13' E 002°12'212.9
2017-Dec-07 16:31N 41°14' E 002°09'714.0
2017-Dec-07 16:01N 41°10' E 002°01'714.7
2017-Dec-07 15:31N 41°06' E 001°53'714.5
2017-Dec-07 15:01N 41°02' E 001°45'714.2
2017-Dec-07 14:30N 40°57' E 001°38'  
2017-Dec-01 21:25N 28°37' W 016°07'410.4
2017-Dec-01 21:00N 28°34' W 016°04'510.3
2017-Dec-01 20:30N 28°29' W 016°06'611.1
2017-Dec-01 20:00N 28°28' W 016°12'  
Track history (hours):
 
Tides and Currents Weather Stations Pressure Air Temp Water Temp Dewpoint Dewpoint Depression Visibility Wind Speed Wind Dir Waves Ship Positions

Violeta B

Last reported at 2017-Dec-11 17:01 UTC. Time now 2017-Dec-13 09:19 UTC.
Position N 35°57' W 005°36'.

Length 170 m; draft 9.7 m.

Type: Cargo ship. MMSI: 212417000.

Date/timePositionNaut miles runAvg speedWind from/ knotsBaromVisibWave heightAir tempDewpointWater temp
2017-Dec-11 17:01N 35°57' W 005°36'22915.9
2017-Dec-11 02:34N 37°10' W 001°05'115.8
2017-Dec-11 02:29N 37°10' W 001°04'815.7
2017-Dec-11 01:59N 37°16' W 000°57'816.3
2017-Dec-11 01:30N 37°21' W 000°50'816.5
2017-Dec-11 01:00N 37°27' W 000°43'1016.5
2017-Dec-11 00:24N 37°34' W 000°34'616.6
2017-Dec-11 00:00N 37°40' W 000°32'916.4
2017-Dec-10 23:27N 37°49' W 000°29'716.5
2017-Dec-10 23:00N 37°56' W 000°27'816.5
2017-Dec-10 22:30N 38°04' W 000°24'190 3.7
2017-Dec-08 18:36N 40°49' E 001°39'217.2
2017-Dec-08 18:29N 40°51' E 001°41'1117.2
2017-Dec-08 17:51N 40°59' E 001°51'1117.3
2017-Dec-08 17:13N 41°07' E 002°00'417.3
2017-Dec-08 16:58N 41°10' E 002°04'9 0.4
2017-Dec-07 20:07N 41°18' E 002°11'1 8.9
2017-Dec-07 20:01N 41°18' E 002°11'5 2.1
2017-Dec-07 17:32N 41°13' E 002°13'0 1.4
2017-Dec-07 17:28N 41°13' E 002°13'1 1.4
2017-Dec-07 16:42N 41°13' E 002°12'212.9
2017-Dec-07 16:31N 41°14' E 002°09'714.0
2017-Dec-07 16:01N 41°10' E 002°01'714.7
2017-Dec-07 15:31N 41°06' E 001°53'714.5
2017-Dec-07 15:01N 41°02' E 001°45'714.2
2017-Dec-07 14:30N 40°57' E 001°38'  
2017-Dec-01 21:25N 28°37' W 016°07'410.4
2017-Dec-01 21:00N 28°34' W 016°04'510.3
2017-Dec-01 20:30N 28°29' W 016°06'611.1
2017-Dec-01 20:00N 28°28' W 016°12'  

Dump ship's entire track history